Time;durP1;ratioP1;P1;durP2;ratioP2;P2;SDS_P1;SDS_P2;PMS_P1;PMS_P2;Temp;Humidity;BMP_temperature;BMP_pressure;BME280_temperature;BME280_humidity;BME280_pressure;Samples;Min_cycle;Max_cycle;Signal;HPM_P1;HPM_P2
2022/04/15 00:01:40;;;;;;;8.18;3.85;;;;;;;;;;5078819;28;20066;-76
2022/04/15 00:04:06;;;;;;;8.50;4.18;;;;;;;;;;5079177;28;20080;-76
2022/04/15 00:06:35;;;;;;;6.53;4.22;;;;;;;;;;5063688;28;20170;-77
2022/04/15 00:09:01;;;;;;;6.68;3.75;;;;;;;;;;5062834;28;20043;-77
2022/04/15 00:11:29;;;;;;;6.40;3.53;;;;;;;;;;5062381;28;20040;-76
2022/04/15 00:13:55;;;;;;;6.63;4.20;;;;;;;;;;5076078;28;20046;-76
2022/04/15 00:16:21;;;;;;;9.35;4.75;;;;;;;;;;5063016;28;20036;-76
2022/04/15 00:18:47;;;;;;;7.65;5.18;;;;;;;;;;5063820;28;20044;-76
2022/04/15 00:21:13;;;;;;;6.13;4.30;;;;;;;;;;5061524;28;20049;-77
2022/04/15 00:23:39;;;;;;;8.18;5.03;;;;;;;;;;5081173;28;20039;-76
2022/04/15 00:26:05;;;;;;;6.95;4.60;;;;;;;;;;5083262;28;20387;-76
2022/04/15 00:28:31;;;;;;;9.00;5.20;;;;;;;;;;5067851;28;20557;-76
2022/04/15 00:30:58;;;;;;;6.38;4.35;;;;;;;;;;5082850;28;20076;-76
2022/04/15 00:33:24;;;;;;;9.20;4.70;;;;;;;;;;5082981;28;20047;-77
2022/04/15 00:35:50;;;;;;;8.10;4.28;;;;;;;;;;5084166;28;20072;-76
2022/04/15 00:38:16;;;;;;;6.80;4.45;;;;;;;;;;5062919;28;20032;-76
2022/04/15 00:40:42;;;;;;;6.65;4.35;;;;;;;;;;5083196;28;20086;-77
2022/04/15 00:43:08;;;;;;;10.25;4.03;;;;;;;;;;5066623;28;20056;-76
2022/04/15 00:45:34;;;;;;;7.68;4.25;;;;;;;;;;5081834;28;20093;-76
2022/04/15 00:48:00;;;;;;;11.88;5.28;;;;;;;;;;5066684;28;20105;-76
2022/04/15 00:50:26;;;;;;;6.07;4.53;;;;;;;;;;5064687;28;20070;-76
2022/04/15 00:52:53;;;;;;;9.80;4.68;;;;;;;;;;5067833;28;20036;-76
2022/04/15 00:55:21;;;;;;;7.18;4.50;;;;;;;;;;5065385;28;20032;-74
2022/04/15 00:57:51;;;;;;;7.35;4.13;;;;;;;;;;5065924;28;20047;-77
2022/04/15 01:00:18;;;;;;;5.57;4.53;;;;;;;;;;5063300;28;20043;-77
2022/04/15 01:02:44;;;;;;;5.30;3.78;;;;;;;;;;5069385;28;20263;-76
2022/04/15 01:05:11;;;;;;;6.95;3.70;;;;;;;;;;5065084;28;20040;-76
2022/04/15 01:07:38;;;;;;;7.15;4.13;;;;;;;;;;5077695;28;20120;-76
2022/04/15 01:10:06;;;;;;;6.75;3.83;;;;;;;;;;5066275;28;20115;-76
2022/04/15 01:12:34;;;;;;;8.30;4.50;;;;;;;;;;5081273;28;20037;-76
2022/04/15 01:15:01;;;;;;;6.93;4.65;;;;;;;;;;5083178;28;20043;-77
2022/04/15 01:17:30;;;;;;;8.70;4.60;;;;;;;;;;5065979;28;20067;-77
2022/04/15 01:19:56;;;;;;;7.00;4.85;;;;;;;;;;5074749;28;20485;-78
2022/04/15 01:22:23;;;;;;;5.53;4.22;;;;;;;;;;5079033;28;20041;-77
2022/04/15 01:24:50;;;;;;;7.05;4.15;;;;;;;;;;5079011;28;20044;-78
2022/04/15 01:27:39;;;;;;;6.30;3.58;;;;;;;;;;5076829;28;20105;-77
2022/04/15 01:30:07;;;;;;;4.30;2.78;;;;;;;;;;5059269;28;20071;-77
2022/04/15 01:32:33;;;;;;;3.63;2.15;;;;;;;;;;5077569;28;20068;-76
2022/04/15 01:34:59;;;;;;;5.28;3.38;;;;;;;;;;5060755;28;20578;-76
2022/04/15 01:37:25;;;;;;;8.10;3.40;;;;;;;;;;5062116;28;20546;-77
2022/04/15 01:39:51;;;;;;;6.28;3.65;;;;;;;;;;5060469;28;20066;-76
2022/04/15 01:42:17;;;;;;;8.45;3.60;;;;;;;;;;5062483;28;20482;-78
2022/04/15 01:44:44;;;;;;;8.85;3.47;;;;;;;;;;5061587;28;20052;-77
2022/04/15 01:47:13;;;;;;;8.50;3.38;;;;;;;;;;5060239;28;20036;-77
2022/04/15 01:49:39;;;;;;;6.90;4.28;;;;;;;;;;5058746;28;20599;-78
2022/04/15 01:52:06;;;;;;;5.50;3.30;;;;;;;;;;5061294;28;20043;-78
2022/04/15 01:54:32;;;;;;;5.63;3.47;;;;;;;;;;5078973;28;20559;-77
2022/04/15 01:56:58;;;;;;;6.97;4.25;;;;;;;;;;5060682;28;20041;-77
2022/04/15 01:59:24;;;;;;;9.02;3.78;;;;;;;;;;5077282;28;20051;-77
2022/04/15 02:01:57;;;;;;;8.13;3.80;;;;;;;;;;5062162;28;20043;-78
2022/04/15 02:04:23;;;;;;;7.15;3.72;;;;;;;;;;5059239;28;20573;-77
2022/04/15 02:06:49;;;;;;;5.80;2.45;;;;;;;;;;5060152;28;20551;-78
2022/04/15 02:09:16;;;;;;;4.63;2.78;;;;;;;;;;5062259;28;20061;-77
2022/04/15 02:11:42;;;;;;;10.55;3.92;;;;;;;;;;5060258;28;20040;-77
2022/04/15 02:14:08;;;;;;;5.63;3.03;;;;;;;;;;5076873;28;20274;-77
2022/04/15 02:16:34;;;;;;;5.40;3.47;;;;;;;;;;5064990;28;20032;-78
2022/04/15 02:19:00;;;;;;;3.20;2.80;;;;;;;;;;5064327;28;20040;-76
2022/04/15 02:21:26;;;;;;;5.43;2.45;;;;;;;;;;5064097;28;20111;-78
2022/04/15 02:23:52;;;;;;;7.13;4.28;;;;;;;;;;5065373;28;20115;-78
2022/04/15 02:26:18;;;;;;;5.43;3.80;;;;;;;;;;5063466;28;20404;-77
2022/04/15 02:28:44;;;;;;;6.75;3.42;;;;;;;;;;5074847;28;20090;-78
2022/04/15 02:31:10;;;;;;;6.03;3.70;;;;;;;;;;5074870;28;20048;-74
2022/04/15 02:33:36;;;;;;;6.55;3.95;;;;;;;;;;5074612;28;20058;-75
2022/04/15 02:36:02;;;;;;;8.48;4.18;;;;;;;;;;5074472;28;20047;-77
2022/04/15 02:38:28;;;;;;;11.95;4.50;;;;;;;;;;5091174;28;20071;-78
2022/04/15 02:40:54;;;;;;;8.57;4.03;;;;;;;;;;5074188;28;20055;-78
2022/04/15 02:43:20;;;;;;;5.78;3.60;;;;;;;;;;5074224;28;20044;-77
2022/04/15 02:45:47;;;;;;;5.60;3.13;;;;;;;;;;5074107;28;20044;-78
2022/04/15 02:48:13;;;;;;;8.30;4.38;;;;;;;;;;5090853;28;20605;-78
2022/04/15 02:50:39;;;;;;;7.43;3.42;;;;;;;;;;5090899;28;20075;-78
2022/04/15 02:53:05;;;;;;;12.65;4.45;;;;;;;;;;5074063;28;20048;-78
2022/04/15 02:55:32;;;;;;;8.63;4.25;;;;;;;;;;5091300;28;20065;-78
2022/04/15 02:57:58;;;;;;;6.03;2.88;;;;;;;;;;5074004;28;20048;-79
2022/04/15 03:00:24;;;;;;;8.60;3.90;;;;;;;;;;5073896;28;20047;-78
2022/04/15 03:02:49;;;;;;;7.70;4.00;;;;;;;;;;5074180;28;20032;-78
2022/04/15 03:05:16;;;;;;;10.27;4.32;;;;;;;;;;5090782;28;20122;-78
2022/04/15 03:07:42;;;;;;;9.82;4.45;;;;;;;;;;5073956;28;20377;-78
2022/04/15 03:10:08;;;;;;;9.07;4.47;;;;;;;;;;5090566;28;20069;-78
2022/04/15 03:12:35;;;;;;;7.78;3.88;;;;;;;;;;5073835;28;20500;-77
2022/04/15 03:15:01;;;;;;;10.32;3.97;;;;;;;;;;5073910;28;20492;-77
2022/04/15 03:17:27;;;;;;;10.57;4.20;;;;;;;;;;5073784;28;20071;-76
2022/04/15 03:19:53;;;;;;;11.93;4.97;;;;;;;;;;5073909;28;20127;-75
2022/04/15 03:22:20;;;;;;;13.45;5.93;;;;;;;;;;5073860;28;20491;-72
2022/04/15 03:24:47;;;;;;;11.65;4.97;;;;;;;;;;5090589;28;20389;-76
2022/04/15 03:27:13;;;;;;;14.40;5.47;;;;;;;;;;5073688;28;20044;-76
2022/04/15 03:29:39;;;;;;;12.68;6.35;;;;;;;;;;5073510;28;20040;-78
2022/04/15 03:32:05;;;;;;;13.35;5.90;;;;;;;;;;5073639;28;20052;-76
2022/04/15 03:34:32;;;;;;;10.63;4.50;;;;;;;;;;5074184;28;20139;-79
2022/04/15 03:36:58;;;;;;;10.27;5.28;;;;;;;;;;5074925;28;20547;-77
2022/04/15 03:39:24;;;;;;;5.43;3.63;;;;;;;;;;5074122;28;20129;-78
2022/04/15 03:41:50;;;;;;;4.65;3.35;;;;;;;;;;5074384;28;20388;-77
2022/04/15 03:44:16;;;;;;;5.93;3.15;;;;;;;;;;5074882;28;20407;-80
2022/04/15 03:46:42;;;;;;;11.32;6.90;;;;;;;;;;5090579;28;20118;-78
2022/04/15 03:49:08;;;;;;;9.15;4.20;;;;;;;;;;5090704;28;20036;-78
2022/04/15 03:51:34;;;;;;;10.73;6.28;;;;;;;;;;5074276;28;20036;-78
2022/04/15 03:54:00;;;;;;;8.48;3.92;;;;;;;;;;5074369;28;20469;-80
2022/04/15 03:56:26;;;;;;;9.88;5.32;;;;;;;;;;5090740;28;20046;-79
2022/04/15 03:58:52;;;;;;;6.30;3.92;;;;;;;;;;5076341;28;20127;-79
2022/04/15 04:01:18;;;;;;;7.78;3.95;;;;;;;;;;5078525;28;20122;-78
2022/04/15 04:03:45;;;;;;;8.55;4.53;;;;;;;;;;5094712;28;20040;-80
2022/04/15 04:06:11;;;;;;;7.70;4.60;;;;;;;;;;5077714;28;20074;-80
2022/04/15 04:08:37;;;;;;;7.50;4.03;;;;;;;;;;5094750;28;20040;-77
2022/04/15 04:11:03;;;;;;;13.45;4.53;;;;;;;;;;5077861;28;20046;-77
2022/04/15 04:13:29;;;;;;;6.57;4.78;;;;;;;;;;5077757;28;20040;-78
2022/04/15 04:15:55;;;;;;;10.57;5.05;;;;;;;;;;5077388;28;20173;-76
2022/04/15 04:18:21;;;;;;;9.63;5.40;;;;;;;;;;5093905;28;20055;-76
2022/04/15 04:20:48;;;;;;;11.65;4.85;;;;;;;;;;5077028;28;20052;-78
2022/04/15 04:23:14;;;;;;;5.65;3.90;;;;;;;;;;5077797;28;20036;-75
2022/04/15 04:25:40;;;;;;;6.82;4.25;;;;;;;;;;5077922;28;20036;-76
2022/04/15 04:28:06;;;;;;;6.50;4.32;;;;;;;;;;5077439;28;20125;-77
2022/04/15 04:30:32;;;;;;;7.10;4.03;;;;;;;;;;5077467;28;20559;-77
2022/04/15 04:32:59;;;;;;;8.82;5.22;;;;;;;;;;5076710;28;20079;-78
2022/04/15 04:35:25;;;;;;;7.97;4.45;;;;;;;;;;5077499;28;20047;-77
2022/04/15 04:37:51;;;;;;;5.15;3.53;;;;;;;;;;5078064;28;20097;-77
2022/04/15 04:40:17;;;;;;;9.18;5.05;;;;;;;;;;5077703;28;20502;-78
2022/04/15 04:42:45;;;;;;;9.23;4.75;;;;;;;;;;5081060;27;20404;-77
2022/04/15 04:45:11;;;;;;;4.13;2.50;;;;;;;;;;5118617;27;20479;-77
2022/04/15 04:47:38;;;;;;;6.80;3.85;;;;;;;;;;5118115;27;20074;-79
2022/04/15 04:50:06;;;;;;;8.70;4.65;;;;;;;;;;5117967;27;20130;-78
2022/04/15 04:52:32;;;;;;;6.93;4.32;;;;;;;;;;5117420;27;20039;-80
2022/04/15 04:54:57;;;;;;;12.32;5.43;;;;;;;;;;5117076;27;20039;-79
2022/04/15 04:57:23;;;;;;;8.40;5.47;;;;;;;;;;5117195;27;20046;-78
2022/04/15 04:59:49;;;;;;;9.20;5.55;;;;;;;;;;5117202;27;20035;-78
2022/04/15 05:02:15;;;;;;;8.80;5.10;;;;;;;;;;5117364;27;20035;-75
2022/04/15 05:04:41;;;;;;;4.30;2.55;;;;;;;;;;5117014;27;20050;-78
2022/04/15 05:07:08;;;;;;;7.85;4.25;;;;;;;;;;5116861;27;20483;-76
2022/04/15 05:09:34;;;;;;;8.75;4.07;;;;;;;;;;5116802;27;20035;-78
2022/04/15 05:12:00;;;;;;;5.05;3.95;;;;;;;;;;5117184;27;20088;-76
2022/04/15 05:14:25;;;;;;;6.15;4.45;;;;;;;;;;5117029;27;20432;-76
2022/04/15 05:16:51;;;;;;;6.38;3.88;;;;;;;;;;5116762;27;20080;-76
2022/04/15 05:19:17;;;;;;;6.25;4.20;;;;;;;;;;5116606;27;20074;-75
2022/04/15 05:21:43;;;;;;;7.47;4.15;;;;;;;;;;5116597;27;20548;-77
2022/04/15 05:24:10;;;;;;;8.98;5.15;;;;;;;;;;5116481;27;20486;-76
2022/04/15 05:26:37;;;;;;;7.75;4.70;;;;;;;;;;5116461;27;20039;-78
2022/04/15 05:29:03;;;;;;;7.55;4.50;;;;;;;;;;5116750;27;20497;-77
2022/04/15 05:31:29;;;;;;;9.15;4.80;;;;;;;;;;5116217;27;20066;-78
2022/04/15 05:33:55;;;;;;;5.88;4.25;;;;;;;;;;5116339;27;20054;-76
2022/04/15 05:36:21;;;;;;;3.10;2.10;;;;;;;;;;5107470;27;20236;-78
2022/04/15 05:38:47;;;;;;;7.60;3.67;;;;;;;;;;5105651;27;20031;-78
2022/04/15 05:41:13;;;;;;;7.00;4.03;;;;;;;;;;5101012;28;20545;-79
2022/04/15 05:43:39;;;;;;;7.68;3.97;;;;;;;;;;5079227;28;20055;-79
2022/04/15 05:46:06;;;;;;;5.68;3.10;;;;;;;;;;5096819;28;20094;-81
2022/04/15 05:48:32;;;;;;;4.28;3.22;;;;;;;;;;5079291;28;20035;-79
2022/04/15 05:50:58;;;;;;;4.13;2.15;;;;;;;;;;5096302;28;20058;-81
2022/04/15 05:53:24;;;;;;;4.80;3.28;;;;;;;;;;5079187;28;20050;-80
2022/04/15 05:55:50;;;;;;;6.13;3.40;;;;;;;;;;5079312;28;20487;-80
2022/04/15 05:58:16;;;;;;;6.03;2.75;;;;;;;;;;5078986;28;20781;-80
2022/04/15 06:00:42;;;;;;;6.95;4.43;;;;;;;;;;5078393;28;20044;-77
2022/04/15 06:03:08;;;;;;;7.35;4.35;;;;;;;;;;5078497;28;20039;-79
2022/04/15 06:05:34;;;;;;;6.95;4.68;;;;;;;;;;5078412;28;20454;-78
2022/04/15 06:08:00;;;;;;;12.70;5.28;;;;;;;;;;5095244;28;20067;-77
2022/04/15 06:10:26;;;;;;;6.95;4.90;;;;;;;;;;5078533;28;20074;-79
2022/04/15 06:12:57;;;;;;;7.25;4.32;;;;;;;;;;5078452;28;20036;-79
2022/04/15 06:15:33;;;;;;;9.50;5.38;;;;;;;;;;5078865;28;20122;-79
2022/04/15 06:18:02;;;;;;;7.90;4.63;;;;;;;;;;5078319;28;20040;-77
2022/04/15 06:20:29;;;;;;;7.32;4.68;;;;;;;;;;5077791;28;20087;-77
2022/04/15 06:22:55;;;;;;;8.55;4.85;;;;;;;;;;5095307;28;20035;-77
2022/04/15 06:25:21;;;;;;;8.32;5.18;;;;;;;;;;5095166;28;20036;-77
2022/04/15 06:27:47;;;;;;;9.15;5.22;;;;;;;;;;5078080;28;20043;-77
2022/04/15 06:30:13;;;;;;;12.25;5.32;;;;;;;;;;5094746;28;20036;-78
2022/04/15 06:32:40;;;;;;;11.35;5.93;;;;;;;;;;5094807;28;20071;-77
2022/04/15 06:35:06;;;;;;;8.55;4.80;;;;;;;;;;5078380;28;20491;-77
2022/04/15 06:37:32;;;;;;;8.35;5.22;;;;;;;;;;5077628;28;20051;-77
2022/04/15 06:39:58;;;;;;;10.52;4.97;;;;;;;;;;5077682;28;20472;-77
2022/04/15 06:42:25;;;;;;;9.77;5.43;;;;;;;;;;5077814;28;20082;-77
2022/04/15 06:44:51;;;;;;;10.82;5.55;;;;;;;;;;5094327;28;20083;-78
2022/04/15 06:47:17;;;;;;;8.07;5.22;;;;;;;;;;5094368;28;20039;-77
2022/04/15 06:49:45;;;;;;;10.07;6.05;;;;;;;;;;5077534;28;20127;-77
2022/04/15 06:52:11;;;;;;;12.98;6.72;;;;;;;;;;5094469;28;20109;-77
2022/04/15 06:54:37;;;;;;;11.98;5.65;;;;;;;;;;5094551;28;20281;-77
2022/04/15 06:57:03;;;;;;;13.15;6.53;;;;;;;;;;5077618;28;20040;-77
2022/04/15 06:59:29;;;;;;;13.88;5.93;;;;;;;;;;5094191;28;20494;-77
2022/04/15 07:01:56;;;;;;;14.07;5.95;;;;;;;;;;5109355;27;20035;-77
2022/04/15 07:04:23;;;;;;;10.25;6.32;;;;;;;;;;5114415;27;20077;-77
2022/04/15 07:06:49;;;;;;;13.27;6.40;;;;;;;;;;5114858;27;20117;-78
2022/04/15 07:09:15;;;;;;;10.77;5.95;;;;;;;;;;5114305;27;20035;-79
2022/04/15 07:11:41;;;;;;;12.65;6.57;;;;;;;;;;5114244;27;20075;-77
2022/04/15 07:14:07;;;;;;;16.27;7.75;;;;;;;;;;5114777;27;20070;-79
2022/04/15 07:16:34;;;;;;;14.77;6.70;;;;;;;;;;5114776;27;20027;-77
2022/04/15 07:19:04;;;;;;;14.45;7.60;;;;;;;;;;5114293;27;20042;-77
2022/04/15 07:21:30;;;;;;;13.48;6.43;;;;;;;;;;5114264;27;20074;-78
2022/04/15 07:23:56;;;;;;;14.40;7.65;;;;;;;;;;5114383;27;20092;-79
2022/04/15 07:26:22;;;;;;;16.02;6.00;;;;;;;;;;5114388;27;20027;-78
2022/04/15 07:28:48;;;;;;;14.77;6.75;;;;;;;;;;5114643;27;20478;-79
2022/04/15 07:31:14;;;;;;;18.60;7.28;;;;;;;;;;5114508;28;20040;-79
2022/04/15 07:33:40;;;;;;;15.75;7.32;;;;;;;;;;5114344;27;20043;-79
2022/04/15 07:36:31;;;;;;;15.52;6.38;;;;;;;;;;5114544;28;20051;-78
2022/04/15 07:38:52;;;;;;;8.45;3.88;;;;;;;;;;5114596;28;20053;-79
2022/04/15 07:41:18;;;;;;;10.70;3.97;;;;;;;;;;5114548;28;20486;-82
2022/04/15 07:43:45;;;;;;;5.28;4.18;;;;;;;;;;5114747;28;20111;-80
2022/04/15 07:46:11;;;;;;;8.13;3.28;;;;;;;;;;5115646;28;20047;-79
2022/04/15 07:48:37;;;;;;;6.13;4.03;;;;;;;;;;5115539;28;20697;-80
2022/04/15 07:51:03;;;;;;;8.40;5.35;;;;;;;;;;5115898;28;20126;-77
2022/04/15 07:53:29;;;;;;;20.48;5.82;;;;;;;;;;5114471;28;20035;-79
2022/04/15 07:55:55;;;;;;;15.93;5.57;;;;;;;;;;5114560;28;20486;-79
2022/04/15 07:58:21;;;;;;;5.50;4.57;;;;;;;;;;5114030;28;20089;-78
2022/04/15 08:00:49;;;;;;;5.53;2.58;;;;;;;;;;5113927;28;20036;-78
2022/04/15 08:03:17;;;;;;;4.60;2.85;;;;;;;;;;5114304;28;20045;-77
2022/04/15 08:05:44;;;;;;;3.05;1.85;;;;;;;;;;5114637;28;20035;-79
2022/04/15 08:08:11;;;;;;;5.80;3.95;;;;;;;;;;5114358;28;20066;-80
2022/04/15 08:10:37;;;;;;;2.78;1.83;;;;;;;;;;5114212;28;20077;-81
2022/04/15 08:13:03;;;;;;;4.45;2.30;;;;;;;;;;5114948;28;20066;-80
2022/04/15 08:15:30;;;;;;;2.88;1.88;;;;;;;;;;5113661;28;20054;-78
2022/04/15 08:17:56;;;;;;;3.67;2.50;;;;;;;;;;5114682;28;20180;-80
2022/04/15 08:20:22;;;;;;;2.28;2.08;;;;;;;;;;5112750;28;20114;-78
2022/04/15 08:22:48;;;;;;;4.82;2.67;;;;;;;;;;5097275;28;20031;-78
2022/04/15 08:25:14;;;;;;;6.72;2.58;;;;;;;;;;5114203;28;20039;-78
2022/04/15 08:27:40;;;;;;;6.88;3.38;;;;;;;;;;5097251;28;20035;-82
2022/04/15 08:30:07;;;;;;;3.55;2.88;;;;;;;;;;5097182;28;20049;-79
2022/04/15 08:32:33;;;;;;;7.95;3.90;;;;;;;;;;5113945;28;20035;-78
2022/04/15 08:35:06;;;;;;;5.13;3.10;;;;;;;;;;5096860;28;20088;-78
2022/04/15 08:37:33;;;;;;;2.80;1.92;;;;;;;;;;5097063;28;20134;-77
2022/04/15 08:39:59;;;;;;;3.67;2.55;;;;;;;;;;5096521;28;20372;-78
2022/04/15 08:42:25;;;;;;;15.18;4.57;;;;;;;;;;5096676;28;20035;-77
2022/04/15 08:44:51;;;;;;;6.32;2.88;;;;;;;;;;5115878;27;20055;-79
2022/04/15 08:47:18;;;;;;;2.22;1.98;;;;;;;;;;5100595;27;20047;-78
2022/04/15 08:49:44;;;;;;;5.32;2.92;;;;;;;;;;5100240;27;20331;-77
2022/04/15 08:52:12;;;;;;;7.60;4.80;;;;;;;;;;5100555;27;20055;-77
2022/04/15 08:54:39;;;;;;;5.32;2.70;;;;;;;;;;5117643;27;20051;-80
2022/04/15 08:57:05;;;;;;;4.00;2.28;;;;;;;;;;5099991;27;20046;-79
2022/04/15 08:59:31;;;;;;;7.70;2.90;;;;;;;;;;5100879;27;20054;-80
2022/04/15 09:01:57;;;;;;;9.73;4.88;;;;;;;;;;5100435;27;20479;-79
2022/04/15 09:04:23;;;;;;;4.88;2.63;;;;;;;;;;5100295;27;20045;-78
2022/04/15 09:07:00;;;;;;;3.88;3.00;;;;;;;;;;5117885;27;20078;-79
2022/04/15 09:09:32;;;;;;;7.07;2.65;;;;;;;;;;5117254;27;20384;-81
2022/04/15 09:12:00;;;;;;;5.50;3.10;;;;;;;;;;5100623;27;20387;-81
2022/04/15 09:14:26;;;;;;;4.80;3.70;;;;;;;;;;5100794;27;20043;-77
2022/04/15 09:16:53;;;;;;;5.75;3.22;;;;;;;;;;5117371;27;20039;-79
2022/04/15 09:19:19;;;;;;;4.68;3.08;;;;;;;;;;5100205;27;20047;-79
2022/04/15 09:21:55;;;;;;;3.15;2.35;;;;;;;;;;5100406;27;20141;-79
2022/04/15 09:24:27;;;;;;;3.67;2.45;;;;;;;;;;5100731;27;20046;-79
2022/04/15 09:26:53;;;;;;;8.40;3.75;;;;;;;;;;5118130;27;20039;-79
2022/04/15 09:29:21;;;;;;;7.18;2.70;;;;;;;;;;5100245;27;20502;-79
2022/04/15 09:31:47;;;;;;;8.70;4.03;;;;;;;;;;5117895;27;20043;-80
2022/04/15 09:34:13;;;;;;;6.05;2.53;;;;;;;;;;5099992;27;20394;-78
2022/04/15 09:36:40;;;;;;;2.80;2.20;;;;;;;;;;5099731;27;20066;-76
2022/04/15 09:39:10;;;;;;;4.82;3.20;;;;;;;;;;5083741;27;20043;-80
2022/04/15 09:41:37;;;;;;;4.63;2.53;;;;;;;;;;5116454;27;20095;-78
2022/04/15 09:44:03;;;;;;;6.53;2.42;;;;;;;;;;5096101;28;20055;-81
2022/04/15 09:46:30;;;;;;;5.70;3.70;;;;;;;;;;5096810;28;20043;-78
2022/04/15 09:49:02;;;;;;;5.20;2.67;;;;;;;;;;5113703;28;20480;-79
2022/04/15 09:51:29;;;;;;;8.13;4.65;;;;;;;;;;5096059;28;20073;-79
2022/04/15 09:53:58;;;;;;;4.80;3.10;;;;;;;;;;5096128;28;20045;-77
2022/04/15 09:56:24;;;;;;;3.70;3.03;;;;;;;;;;5094914;28;20043;-79
2022/04/15 09:58:55;;;;;;;4.97;3.15;;;;;;;;;;5096001;28;20080;-78
2022/04/15 10:01:28;;;;;;;7.47;3.75;;;;;;;;;;5096199;28;20074;-79
2022/04/15 10:03:55;;;;;;;4.13;3.40;;;;;;;;;;5096571;28;20532;-79
2022/04/15 10:06:23;;;;;;;6.40;3.35;;;;;;;;;;5096382;28;20080;-78
2022/04/15 10:08:49;;;;;;;7.22;2.38;;;;;;;;;;5095766;28;20036;-73
2022/04/15 10:11:19;;;;;;;6.95;3.13;;;;;;;;;;5095778;28;20131;-77
2022/04/15 10:13:46;;;;;;;9.07;4.45;;;;;;;;;;5097071;28;20039;-81
2022/04/15 10:16:16;;;;;;;7.90;3.10;;;;;;;;;;5113242;28;20173;-80
2022/04/15 10:18:42;;;;;;;4.70;3.70;;;;;;;;;;5096068;28;20116;-78
2022/04/15 10:21:08;;;;;;;7.32;3.30;;;;;;;;;;5095621;28;20035;-77
2022/04/15 10:23:35;;;;;;;3.13;2.50;;;;;;;;;;5113329;28;20047;-76
2022/04/15 10:26:03;;;;;;;6.82;3.25;;;;;;;;;;5113708;28;20046;-77
2022/04/15 10:28:42;;;;;;;5.57;3.22;;;;;;;;;;5080068;28;20039;-78
2022/04/15 10:31:13;;;;;;;7.57;4.20;;;;;;;;;;5112378;28;20134;-78
2022/04/15 10:33:39;;;;;;;4.85;3.35;;;;;;;;;;5095963;28;20088;-80
2022/04/15 10:36:12;;;;;;;5.65;4.13;;;;;;;;;;5096303;28;20049;-79
2022/04/15 10:38:38;;;;;;;5.40;3.95;;;;;;;;;;5095710;28;20047;-79
2022/04/15 10:41:16;;;;;;;6.28;4.53;;;;;;;;;;5095683;28;20075;-77
2022/04/15 10:43:55;;;;;;;7.88;4.47;;;;;;;;;;5095847;28;20094;-77
2022/04/15 10:46:28;;;;;;;9.80;4.82;;;;;;;;;;5096037;28;20043;-79
2022/04/15 10:48:57;;;;;;;7.95;4.05;;;;;;;;;;5095236;28;20039;-80
2022/04/15 10:51:29;;;;;;;6.53;3.92;;;;;;;;;;5111960;28;20047;-80
2022/04/15 10:53:56;;;;;;;7.13;4.20;;;;;;;;;;5094580;28;20065;-78
2022/04/15 10:56:24;;;;;;;6.07;3.88;;;;;;;;;;5094869;28;20399;-79
2022/04/15 11:01:54;;;;;;;7.80;4.57;;;;;;;;;;5112663;28;20043;-79
2022/04/15 11:04:24;;;;;;;8.90;5.43;;;;;;;;;;5111517;28;20407;-78
2022/04/15 11:06:55;;;;;;;4.03;2.97;;;;;;;;;;5094516;28;20100;-81
2022/04/15 11:09:23;;;;;;;8.23;4.88;;;;;;;;;;5095260;28;20277;-77
2022/04/15 11:11:53;;;;;;;5.85;3.97;;;;;;;;;;5094708;28;20498;-79
2022/04/15 11:14:31;;;;;;;8.03;4.73;;;;;;;;;;5111707;28;20042;-77
2022/04/15 11:17:01;;;;;;;12.10;4.43;;;;;;;;;;5094975;28;20389;-80
2022/04/15 11:19:27;;;;;;;5.13;4.05;;;;;;;;;;5094408;28;20051;-79
2022/04/15 11:21:54;;;;;;;7.38;3.15;;;;;;;;;;5094541;28;20067;-80
2022/04/15 11:24:25;;;;;;;7.75;4.03;;;;;;;;;;5111810;28;20044;-79
2022/04/15 11:26:51;;;;;;;;;;;;;;;;;;5112177;28;20521;-79
2022/04/15 11:29:17;;;;;;;6.43;3.53;;;;;;;;;;5111303;28;19966;-77
2022/04/15 11:31:49;;;;;;;5.95;4.15;;;;;;;;;;5111382;28;20141;-79
2022/04/15 11:34:16;;;;;;;6.80;4.05;;;;;;;;;;5093969;28;20369;-78
2022/04/15 11:36:44;;;;;;;4.25;3.10;;;;;;;;;;5094075;28;20039;-80
2022/04/15 11:39:14;;;;;;;7.20;3.95;;;;;;;;;;5093797;28;20043;-78
2022/04/15 11:41:44;;;;;;;7.85;3.47;;;;;;;;;;5094681;28;20047;-76
2022/04/15 11:44:11;;;;;;;3.17;2.58;;;;;;;;;;5093916;28;20509;-80
2022/04/15 11:46:39;;;;;;;7.30;4.53;;;;;;;;;;5093551;28;20396;-76
2022/04/15 11:49:11;;;;;;;11.85;6.22;;;;;;;;;;5093859;28;20048;-77
2022/04/15 11:51:37;;;;;;;10.00;5.40;;;;;;;;;;5093801;28;20051;-78
2022/04/15 11:54:03;;;;;;;5.60;3.67;;;;;;;;;;5093612;28;20039;-79
2022/04/15 11:56:29;;;;;;;5.43;3.35;;;;;;;;;;5095418;28;20128;-80
2022/04/15 11:58:57;;;;;;;5.82;3.33;;;;;;;;;;5094169;28;20047;-80
2022/04/15 12:01:31;;;;;;;6.68;4.25;;;;;;;;;;5094735;28;20048;-80
2022/04/15 12:03:58;;;;;;;3.88;3.15;;;;;;;;;;5110577;28;20035;-79
2022/04/15 12:06:24;;;;;;;7.40;4.30;;;;;;;;;;5094455;28;20040;-78
2022/04/15 12:08:50;;;;;;;3.95;3.03;;;;;;;;;;5093654;28;20035;-80
2022/04/15 12:11:22;;;;;;;7.05;4.40;;;;;;;;;;5093591;28;20046;-78
2022/04/15 12:13:48;;;;;;;9.35;4.82;;;;;;;;;;5093942;28;20069;-78
2022/04/15 12:16:14;;;;;;;4.00;2.35;;;;;;;;;;5110396;28;20046;-78
2022/04/15 12:18:40;;;;;;;3.70;3.10;;;;;;;;;;5110452;28;20496;-80
2022/04/15 12:21:06;;;;;;;6.90;3.85;;;;;;;;;;5097544;28;20131;-80
2022/04/15 12:23:32;;;;;;;7.20;4.70;;;;;;;;;;5114799;28;20437;-78
2022/04/15 12:26:06;;;;;;;5.60;4.28;;;;;;;;;;5115437;28;20046;-80
2022/04/15 12:31:25;;;;;;;6.07;3.95;;;;;;;;;;5115286;28;20047;-80
2022/04/15 12:33:51;;;;;;;4.78;3.55;;;;;;;;;;5097905;28;20048;-79
2022/04/15 12:36:17;;;;;;;9.13;4.78;;;;;;;;;;5098618;28;20042;-77
2022/04/15 12:39:01;;;;;;;6.30;2.95;;;;;;;;;;5099115;28;20552;-77
2022/04/15 12:41:40;;;;;;;5.07;3.08;;;;;;;;;;5114387;28;20077;-78
2022/04/15 12:44:29;;;;;;;16.05;3.75;;;;;;;;;;5114247;28;20059;-78
2022/04/15 12:47:02;;;;;;;8.55;4.85;;;;;;;;;;5097095;28;20473;-80
2022/04/15 12:49:29;;;;;;;8.52;3.88;;;;;;;;;;5099793;28;20399;-80
2022/04/15 12:52:06;;;;;;;14.20;4.05;;;;;;;;;;5098252;28;20043;-80
2022/04/15 12:54:32;;;;;;;3.55;2.15;;;;;;;;;;5096843;28;20096;-79
2022/04/15 12:56:59;;;;;;;9.32;4.28;;;;;;;;;;5097672;28;20429;-78
2022/04/15 12:59:26;;;;;;;8.95;4.55;;;;;;;;;;5096724;28;20043;-78
2022/04/15 13:01:52;;;;;;;7.68;3.83;;;;;;;;;;5096950;28;20035;-79
2022/04/15 13:04:18;;;;;;;7.40;4.30;;;;;;;;;;5097111;28;20058;-78
2022/04/15 13:06:45;;;;;;;7.35;4.65;;;;;;;;;;5096559;28;20039;-79
2022/04/15 13:09:11;;;;;;;6.13;3.40;;;;;;;;;;5113951;28;20036;-80
2022/04/15 13:11:37;;;;;;;5.93;3.72;;;;;;;;;;5113386;28;20128;-78
2022/04/15 13:14:03;;;;;;;11.02;4.53;;;;;;;;;;5096612;28;20046;-80
2022/04/15 13:16:29;;;;;;;8.20;4.55;;;;;;;;;;5096476;28;20047;-78
2022/04/15 13:18:55;;;;;;;7.47;4.60;;;;;;;;;;5096309;28;20571;-78
2022/04/15 13:21:22;;;;;;;7.32;4.30;;;;;;;;;;5113342;28;20087;-78
2022/04/15 13:23:48;;;;;;;7.10;4.88;;;;;;;;;;5096461;28;20073;-78
2022/04/15 13:26:14;;;;;;;9.10;5.30;;;;;;;;;;5113558;28;20457;-77
2022/04/15 13:28:41;;;;;;;14.32;5.97;;;;;;;;;;5096143;28;20403;-77
2022/04/15 13:31:08;;;;;;;6.25;4.70;;;;;;;;;;5112877;28;20054;-78
2022/04/15 13:33:34;;;;;;;8.52;5.68;;;;;;;;;;5096356;28;20058;-79
2022/04/15 13:36:01;;;;;;;9.27;5.72;;;;;;;;;;5096149;28;20101;-78
2022/04/15 13:38:27;;;;;;;5.93;4.13;;;;;;;;;;5112808;28;20047;-80
2022/04/15 13:40:53;;;;;;;7.85;3.90;;;;;;;;;;5096140;28;20063;-79
2022/04/15 13:43:19;;;;;;;8.95;4.47;;;;;;;;;;5095714;28;20048;-80
2022/04/15 13:45:45;;;;;;;6.85;4.80;;;;;;;;;;5112964;28;20036;-78
2022/04/15 13:48:11;;;;;;;8.60;4.18;;;;;;;;;;5095792;28;20122;-78
2022/04/15 13:50:37;;;;;;;7.32;4.38;;;;;;;;;;5095542;28;20494;-80
2022/04/15 13:58:33;;;;;;;3.88;2.97;;;;;;;;;;5114558;28;20047;-79
2022/04/15 14:00:59;;;;;;;9.63;4.55;;;;;;;;;;5112468;28;20047;-78
2022/04/15 14:03:25;;;;;;;6.93;3.92;;;;;;;;;;5095412;28;20114;-78
2022/04/15 14:05:51;;;;;;;5.50;3.78;;;;;;;;;;5112582;28;20046;-79
2022/04/15 14:08:18;;;;;;;8.02;4.45;;;;;;;;;;5114144;28;20062;-78
2022/04/15 14:10:43;;;;;;;3.28;2.20;;;;;;;;;;5095567;28;20407;-80
2022/04/15 14:13:12;;;;;;;10.55;4.47;;;;;;;;;;5095948;28;20043;-77
2022/04/15 14:15:37;;;;;;;7.05;4.35;;;;;;;;;;5095642;28;20093;-78
2022/04/15 14:18:04;;;;;;;7.47;3.75;;;;;;;;;;5095722;28;20434;-79
2022/04/15 14:20:30;;;;;;;10.70;5.20;;;;;;;;;;5095795;28;20040;-79
2022/04/15 14:22:56;;;;;;;9.57;5.00;;;;;;;;;;5095278;28;20385;-77
2022/04/15 14:25:22;;;;;;;7.45;4.50;;;;;;;;;;5095218;28;20057;-80
2022/04/15 14:27:48;;;;;;;6.80;3.70;;;;;;;;;;5111957;28;20546;-80
2022/04/15 14:30:14;;;;;;;10.43;4.93;;;;;;;;;;5094929;28;20044;-78
2022/04/15 14:32:40;;;;;;;7.85;5.20;;;;;;;;;;5094975;28;20460;-77
2022/04/15 14:35:06;;;;;;;7.03;4.55;;;;;;;;;;5095323;28;20127;-78
2022/04/15 14:37:32;;;;;;;6.68;4.30;;;;;;;;;;5095026;28;20039;-77
2022/04/15 14:39:58;;;;;;;11.13;4.70;;;;;;;;;;5094857;28;20103;-78
2022/04/15 14:42:24;;;;;;;9.95;4.85;;;;;;;;;;5094372;28;20036;-78
2022/04/15 14:44:50;;;;;;;10.55;4.85;;;;;;;;;;5111528;28;20515;-77
2022/04/15 14:47:16;;;;;;;9.73;5.25;;;;;;;;;;5094812;28;20365;-77
2022/04/15 14:49:43;;;;;;;6.38;4.40;;;;;;;;;;5094860;28;20080;-78
2022/04/15 14:52:09;;;;;;;8.27;4.45;;;;;;;;;;5094593;28;20035;-78